createdAt,value
2023-01-09T00:01:47.886Z,6.85
2023-01-09T00:04:15.944Z,6.85
2023-01-09T00:06:45.834Z,6.86
2023-01-09T00:09:13.900Z,6.88
2023-01-09T00:11:41.693Z,6.89
2023-01-09T00:14:11.207Z,6.88
2023-01-09T00:16:39.140Z,6.88
2023-01-09T00:19:06.981Z,6.89
2023-01-09T00:21:34.976Z,6.89
2023-01-09T00:24:02.980Z,6.88
2023-01-09T00:26:30.747Z,6.89
2023-01-09T00:28:59.168Z,6.90
2023-01-09T00:31:29.009Z,6.89
2023-01-09T00:34:00.958Z,6.89
2023-01-09T00:36:29.130Z,6.88
2023-01-09T00:38:57.198Z,6.90
2023-01-09T00:41:28.600Z,6.91
2023-01-09T00:43:59.474Z,6.93
2023-01-09T00:46:34.490Z,6.93
2023-01-09T00:49:06.508Z,6.94
2023-01-09T00:51:34.549Z,6.94
2023-01-09T00:54:03.871Z,6.93
2023-01-09T00:56:32.109Z,6.93
2023-01-09T00:58:59.917Z,6.94
2023-01-09T01:01:29.310Z,6.93
2023-01-09T01:03:57.276Z,6.92
2023-01-09T01:06:42.914Z,6.92
2023-01-09T01:09:10.736Z,6.92
2023-01-09T01:11:38.525Z,6.91
2023-01-09T01:14:06.407Z,6.90
2023-01-09T01:16:35.629Z,6.88
2023-01-09T01:19:03.529Z,6.86
2023-01-09T01:21:31.460Z,6.85
2023-01-09T01:23:59.322Z,6.83
2023-01-09T01:26:27.400Z,6.82
2023-01-09T01:28:59.454Z,6.79
2023-01-09T01:31:27.272Z,6.77
2023-01-09T01:33:56.570Z,6.75
2023-01-09T01:36:24.335Z,6.73
2023-01-09T01:38:52.154Z,6.70
2023-01-09T01:41:29.567Z,6.68
2023-01-09T01:43:59.766Z,6.66
2023-01-09T01:46:27.958Z,6.63
2023-01-09T01:49:02.138Z,6.61
2023-01-09T01:51:34.174Z,6.62
2023-01-09T01:54:06.903Z,6.60
2023-01-09T01:56:37.659Z,6.58
2023-01-09T01:59:10.911Z,6.57
2023-01-09T02:04:36.511Z,6.55
2023-01-09T02:07:09.692Z,6.54
2023-01-09T02:09:39.669Z,6.52
2023-01-09T02:12:17.256Z,6.50
2023-01-09T02:14:46.043Z,6.49
2023-01-09T02:17:37.984Z,6.49
2023-01-09T02:20:36.577Z,6.47
2023-01-09T02:23:27.345Z,6.47
2023-01-09T02:26:25.159Z,6.45
2023-01-09T02:29:13.853Z,6.44
2023-01-09T02:31:50.109Z,6.45
2023-01-09T02:34:27.465Z,6.43
2023-01-09T02:37:03.401Z,6.42
2023-01-09T02:39:38.217Z,6.41
2023-01-09T02:42:11.912Z,6.39
2023-01-09T02:44:42.989Z,6.38
2023-01-09T02:47:49.650Z,6.36
2023-01-09T02:50:26.059Z,6.35
2023-01-09T02:53:26.758Z,6.34
2023-01-09T02:56:04.286Z,6.34
2023-01-09T02:58:50.749Z,6.33
2023-01-09T03:01:27.937Z,6.33
2023-01-09T03:04:05.865Z,6.29
2023-01-09T03:06:43.939Z,6.28
2023-01-09T03:09:16.370Z,6.28
2023-01-09T03:14:46.779Z,6.25
2023-01-09T03:17:20.354Z,6.24
2023-01-09T03:19:50.153Z,6.23
2023-01-09T03:22:19.641Z,6.22
2023-01-09T03:24:47.552Z,6.21
2023-01-09T03:27:16.062Z,6.20
2023-01-09T03:29:45.664Z,6.19
2023-01-09T03:32:13.899Z,6.17
2023-01-09T03:34:41.734Z,6.18
2023-01-09T03:37:09.578Z,6.16
2023-01-09T03:39:38.664Z,6.16
2023-01-09T03:42:06.707Z,6.17
2023-01-09T03:44:34.514Z,6.16
2023-01-09T03:47:02.316Z,6.16
2023-01-09T03:49:30.143Z,6.17
2023-01-09T03:51:58.040Z,6.17
2023-01-09T03:54:25.813Z,6.15
2023-01-09T03:56:54.941Z,6.17
2023-01-09T03:59:23.015Z,6.17
2023-01-09T04:01:51.036Z,6.17
2023-01-09T04:04:19.009Z,6.18
2023-01-09T04:06:46.812Z,6.16
2023-01-09T04:09:14.731Z,6.16
2023-01-09T04:11:42.523Z,6.16
2023-01-09T04:14:11.666Z,6.16
2023-01-09T04:16:39.774Z,6.16
2023-01-09T04:19:07.649Z,6.15
2023-01-09T04:21:35.686Z,6.14
2023-01-09T04:24:03.813Z,6.15
2023-01-09T04:26:31.596Z,6.15
2023-01-09T04:29:01.857Z,6.15
2023-01-09T04:31:31.003Z,6.15
2023-01-09T04:33:58.860Z,6.16
2023-01-09T04:36:26.638Z,6.14
2023-01-09T04:38:54.567Z,6.13
2023-01-09T04:41:36.271Z,6.12
2023-01-09T04:44:04.147Z,6.11
2023-01-09T04:46:33.334Z,6.11
2023-01-09T04:49:01.141Z,6.12
2023-01-09T04:51:28.999Z,6.11
2023-01-09T04:53:56.787Z,6.12
2023-01-09T04:56:24.805Z,6.11
2023-01-09T04:58:52.675Z,6.12
2023-01-09T05:01:20.609Z,6.14
2023-01-09T05:03:49.809Z,6.17
2023-01-09T05:06:17.687Z,6.20
2023-01-09T05:08:46.635Z,6.21
2023-01-09T05:11:14.519Z,6.23
2023-01-09T05:13:42.441Z,6.21
2023-01-09T05:16:10.603Z,6.23
2023-01-09T05:18:38.606Z,6.22
2023-01-09T05:21:07.808Z,6.21
2023-01-09T05:23:35.739Z,6.23
2023-01-09T05:26:04.979Z,6.22
2023-01-09T05:28:33.678Z,6.22
2023-01-09T05:31:01.461Z,6.20
2023-01-09T05:33:29.388Z,6.16
2023-01-09T05:35:57.204Z,6.15
2023-01-09T05:38:26.482Z,6.14
2023-01-09T05:40:54.369Z,6.12
2023-01-09T05:43:22.173Z,6.09
2023-01-09T05:45:49.959Z,6.03
2023-01-09T05:48:18.095Z,6.02
2023-01-09T05:50:46.090Z,6.02
2023-01-09T05:53:13.885Z,5.96
2023-01-09T05:55:43.488Z,5.91
2023-01-09T05:58:11.301Z,5.89
2023-01-09T06:00:39.234Z,5.86
2023-01-09T06:03:07.026Z,5.82
2023-01-09T06:05:35.001Z,5.78
2023-01-09T06:08:02.868Z,5.78
2023-01-09T06:10:30.730Z,5.74
2023-01-09T06:12:59.912Z,5.69
2023-01-09T06:15:27.792Z,5.64
2023-01-09T06:17:55.649Z,5.61
2023-01-09T06:20:23.484Z,5.58
2023-01-09T06:22:52.231Z,5.57
2023-01-09T06:25:20.188Z,5.55
2023-01-09T06:27:48.055Z,5.55
2023-01-09T06:30:17.827Z,5.53
2023-01-09T06:32:45.575Z,5.51
2023-01-09T06:35:13.391Z,5.50
2023-01-09T06:37:41.199Z,5.50
2023-01-09T06:40:10.319Z,5.46
2023-01-09T06:42:38.253Z,5.41
2023-01-09T06:45:06.922Z,5.35
2023-01-09T06:47:36.286Z,5.30
2023-01-09T06:50:04.124Z,5.26
2023-01-09T06:52:31.952Z,5.20
2023-01-09T06:54:59.730Z,5.16
2023-01-09T06:57:27.579Z,5.11
2023-01-09T06:59:55.424Z,5.07
2023-01-09T07:02:23.555Z,5.06
2023-01-09T07:04:52.749Z,5.05
2023-01-09T07:07:22.276Z,5.05
2023-01-09T07:09:50.617Z,5.06
2023-01-09T07:12:18.459Z,5.05
2023-01-09T07:14:46.347Z,5.06
2023-01-09T07:17:17.076Z,5.05
2023-01-09T07:19:44.864Z,5.03
2023-01-09T07:25:06.999Z,5.04
2023-01-09T08:07:04.353Z,5.17
2023-01-09T08:12:25.414Z,5.15
2023-01-09T08:14:53.213Z,5.16
2023-01-09T08:17:21.033Z,5.15
2023-01-09T08:19:48.839Z,5.14
2023-01-09T08:22:16.672Z,5.14
2023-01-09T08:24:45.883Z,5.14
2023-01-09T08:27:13.738Z,5.13
2023-01-09T08:29:41.559Z,5.14
2023-01-09T08:32:09.463Z,5.17
2023-01-09T08:34:37.313Z,5.18
2023-01-09T08:37:05.809Z,5.19
2023-01-09T08:39:33.560Z,5.21
2023-01-09T08:42:20.016Z,5.24
2023-01-09T08:45:05.444Z,5.26
2023-01-09T08:47:34.142Z,5.28
2023-01-09T08:50:01.921Z,5.36
2023-01-09T08:52:30.752Z,5.42
2023-01-09T08:54:58.547Z,5.46
2023-01-09T08:57:27.923Z,5.50
2023-01-09T08:59:55.801Z,5.53
2023-01-09T09:02:23.619Z,5.53
2023-01-09T09:04:53.094Z,5.52
2023-01-09T09:07:26.362Z,5.57
2023-01-09T09:09:54.717Z,5.59
2023-01-09T09:12:23.191Z,5.61
2023-01-09T09:15:09.689Z,5.63
2023-01-09T09:17:37.593Z,5.68
2023-01-09T09:20:06.131Z,5.73
2023-01-09T09:22:34.184Z,5.77
2023-01-09T09:25:02.490Z,5.80
2023-01-09T09:27:30.493Z,5.86
2023-01-09T09:29:59.782Z,5.87
2023-01-09T09:32:27.543Z,5.91
2023-01-09T09:34:55.669Z,5.94
2023-01-09T09:37:23.618Z,6.00
2023-01-09T09:39:51.717Z,6.04
2023-01-09T09:42:58.949Z,6.07
2023-01-09T09:45:38.488Z,6.13
2023-01-09T09:48:20.571Z,6.15
2023-01-09T09:51:25.279Z,6.14
2023-01-09T09:53:59.824Z,6.16
2023-01-09T09:56:31.610Z,6.22
2023-01-09T09:59:03.750Z,6.26
2023-01-09T10:01:39.336Z,6.30
2023-01-09T10:04:12.027Z,6.36
2023-01-09T10:06:43.222Z,6.40
2023-01-09T10:09:18.352Z,6.45
2023-01-09T10:11:50.985Z,6.50
2023-01-09T10:14:24.362Z,6.55
2023-01-09T10:17:13.379Z,6.60
2023-01-09T10:20:07.648Z,6.65
2023-01-09T10:22:45.877Z,6.70
2023-01-09T10:25:25.402Z,6.77
2023-01-09T10:28:22.581Z,6.81
2023-01-09T10:30:54.427Z,6.86
2023-01-09T10:33:37.012Z,6.87
2023-01-09T10:36:44.656Z,6.87
2023-01-09T10:39:19.577Z,6.84
2023-01-09T10:41:55.208Z,6.83
2023-01-09T10:44:28.103Z,6.79
2023-01-09T10:46:57.733Z,6.77
2023-01-09T10:49:27.821Z,6.72
2023-01-09T10:52:06.718Z,6.72
2023-01-09T10:54:34.594Z,6.71
2023-01-09T10:57:11.855Z,6.67
2023-01-09T10:59:41.197Z,6.68
2023-01-09T11:02:25.532Z,6.65
2023-01-09T11:04:54.715Z,6.63
2023-01-09T11:07:25.681Z,6.62
2023-01-09T11:09:57.744Z,6.63
2023-01-09T11:12:27.539Z,6.65
2023-01-09T11:14:55.640Z,6.64
2023-01-09T11:17:28.097Z,6.69
2023-01-09T11:20:05.771Z,6.74
2023-01-09T11:22:44.332Z,6.76
2023-01-09T11:25:15.036Z,6.75
2023-01-09T11:27:43.281Z,6.77
2023-01-09T11:30:27.939Z,6.79
2023-01-09T11:32:57.742Z,6.80
2023-01-09T11:35:33.705Z,6.81
2023-01-09T11:38:07.006Z,6.82
2023-01-09T11:40:46.025Z,6.85
2023-01-09T11:43:19.189Z,6.90
2023-01-09T11:46:00.480Z,6.97
2023-01-09T11:48:32.774Z,7.02
2023-01-09T11:51:03.997Z,7.15
2023-01-09T11:53:48.870Z,7.27
2023-01-09T11:56:18.317Z,7.36
2023-01-09T11:58:46.432Z,7.42
2023-01-09T12:01:29.740Z,7.42
2023-01-09T12:04:19.385Z,7.34
2023-01-09T12:07:03.697Z,7.34
2023-01-09T12:09:43.983Z,7.34
2023-01-09T12:12:24.619Z,7.34
2023-01-09T12:15:10.113Z,7.33
2023-01-09T12:17:52.321Z,7.31
2023-01-09T12:20:32.283Z,7.31
2023-01-09T12:23:16.567Z,7.30
2023-01-09T12:25:54.572Z,7.30
2023-01-09T12:28:58.018Z,7.30
2023-01-09T12:31:35.371Z,7.28
2023-01-09T12:34:19.821Z,7.29
2023-01-09T12:36:59.335Z,7.31
2023-01-09T12:39:40.174Z,7.29
2023-01-09T12:42:29.496Z,7.29
2023-01-09T12:45:02.076Z,7.30
2023-01-09T12:47:45.455Z,7.32
2023-01-09T12:50:50.712Z,7.34
2023-01-09T12:53:25.004Z,7.36
2023-01-09T12:56:01.566Z,7.36
2023-01-09T12:58:36.833Z,7.37
2023-01-09T13:01:09.636Z,7.38
2023-01-09T13:03:45.085Z,7.36
2023-01-09T13:06:17.635Z,7.35
2023-01-09T13:08:50.946Z,7.36
2023-01-09T13:11:26.061Z,7.38
2023-01-09T13:13:59.521Z,7.40
2023-01-09T13:16:31.462Z,7.43
2023-01-09T13:19:07.048Z,7.45
2023-01-09T13:21:35.642Z,7.43
2023-01-09T13:24:11.818Z,7.43
2023-01-09T13:26:45.281Z,7.46
2023-01-09T13:29:18.151Z,7.50
2023-01-09T13:32:08.833Z,7.52
2023-01-09T13:34:38.521Z,7.51
2023-01-09T13:37:06.686Z,7.50
2023-01-09T13:39:36.270Z,7.43
2023-01-09T13:42:25.149Z,7.35
2023-01-09T13:44:56.551Z,7.32
2023-01-09T13:47:27.821Z,7.31
2023-01-09T13:50:06.368Z,7.29
2023-01-09T13:52:37.694Z,7.28
2023-01-09T13:55:25.861Z,7.26
2023-01-09T13:58:28.458Z,7.19
2023-01-09T14:01:00.581Z,7.12
2023-01-09T14:03:32.906Z,7.08
2023-01-09T14:06:17.549Z,7.03
2023-01-09T14:08:48.510Z,7.00
2023-01-09T14:11:22.561Z,6.95
2023-01-09T14:14:09.106Z,6.91
2023-01-09T14:16:38.977Z,6.89
2023-01-09T14:19:19.225Z,6.85
2023-01-09T14:21:50.808Z,6.87
2023-01-09T14:24:29.534Z,6.85
2023-01-09T14:30:33.447Z,6.86
2023-01-09T14:33:03.295Z,6.86
2023-01-09T14:35:41.589Z,6.88
2023-01-09T14:38:27.115Z,6.84
2023-01-09T14:40:58.129Z,6.82
2023-01-09T14:43:33.759Z,6.81
2023-01-09T14:46:11.950Z,6.80
2023-01-09T14:48:55.333Z,6.79
2023-01-09T14:51:25.355Z,6.75
2023-01-09T14:53:54.488Z,6.74
2023-01-09T14:56:28.956Z,6.72
2023-01-09T14:59:11.476Z,6.71
2023-01-09T15:01:43.492Z,6.72
2023-01-09T15:04:23.621Z,6.72
2023-01-09T15:06:52.083Z,6.72
2023-01-09T15:09:25.115Z,6.72
2023-01-09T15:11:54.514Z,6.71
2023-01-09T15:14:35.816Z,6.71
2023-01-09T15:17:05.718Z,6.71
2023-01-09T15:19:34.483Z,6.68
2023-01-09T15:22:04.818Z,6.63
2023-01-09T15:24:34.676Z,6.58
2023-01-09T15:27:11.972Z,6.55
2023-01-09T15:29:39.919Z,6.51
2023-01-09T15:32:14.816Z,6.47
2023-01-09T15:34:45.771Z,6.44
2023-01-09T15:37:34.934Z,6.41
2023-01-09T15:40:07.534Z,6.41
2023-01-09T15:42:58.079Z,6.40
2023-01-09T15:45:29.199Z,6.39
2023-01-09T15:48:16.734Z,6.38
2023-01-09T15:50:45.190Z,6.36
2023-01-09T15:53:15.837Z,6.33
2023-01-09T15:55:43.862Z,6.30
2023-01-09T15:58:27.185Z,6.30
2023-01-09T16:00:57.309Z,6.29
2023-01-09T16:03:27.414Z,6.28
2023-01-09T16:06:05.320Z,6.27
2023-01-09T16:08:36.745Z,6.26
2023-01-09T16:11:07.330Z,6.25
2023-01-09T16:13:44.226Z,6.24
2023-01-09T16:16:13.072Z,6.23
2023-01-09T16:18:51.596Z,6.22
2023-01-09T16:21:38.415Z,6.20
2023-01-09T16:24:25.943Z,6.20
2023-01-09T16:27:11.466Z,6.21
2023-01-09T16:29:46.104Z,6.20
2023-01-09T16:32:19.785Z,6.20
2023-01-09T16:34:53.566Z,6.20
2023-01-09T16:37:22.471Z,6.20
2023-01-09T16:40:27.422Z,6.18
2023-01-09T16:43:03.400Z,6.19
2023-01-09T16:45:34.278Z,6.20
2023-01-09T16:48:02.442Z,6.18
2023-01-09T16:50:31.578Z,6.20
2023-01-09T16:53:00.692Z,6.21
2023-01-09T16:55:28.555Z,6.19
2023-01-09T16:57:56.495Z,6.16
2023-01-09T17:00:24.476Z,6.14
2023-01-09T17:02:52.578Z,6.10
2023-01-09T17:05:20.366Z,6.05
2023-01-09T17:07:49.690Z,6.02
2023-01-09T17:10:21.894Z,6.01
2023-01-09T17:12:50.287Z,5.99
2023-01-09T17:15:18.131Z,5.98
2023-01-09T17:17:46.063Z,5.98
2023-01-09T17:20:19.266Z,5.96
2023-01-09T17:22:47.102Z,5.95
2023-01-09T17:25:35.272Z,5.92
2023-01-09T17:28:21.779Z,5.90
2023-01-09T17:30:49.776Z,5.90
2023-01-09T17:33:19.575Z,5.90
2023-01-09T17:35:48.328Z,5.90
2023-01-09T17:38:17.662Z,5.89
2023-01-09T17:40:46.973Z,5.87
2023-01-09T17:43:14.921Z,5.89
2023-01-09T17:45:43.230Z,5.90
2023-01-09T17:48:17.329Z,5.91
2023-01-09T17:50:45.927Z,5.90
2023-01-09T17:53:14.339Z,5.90
2023-01-09T17:55:43.128Z,5.88
2023-01-09T17:58:25.127Z,5.88
2023-01-09T18:00:53.342Z,5.87
2023-01-09T18:03:23.027Z,5.85
2023-01-09T18:05:51.759Z,5.85
2023-01-09T18:08:19.839Z,5.85
2023-01-09T18:10:48.721Z,5.83
2023-01-09T18:13:18.198Z,5.81
2023-01-09T18:15:47.535Z,5.80
2023-01-09T18:18:16.218Z,5.77
2023-01-09T18:20:46.024Z,5.74
2023-01-09T18:23:14.387Z,5.73
2023-01-09T18:25:42.817Z,5.70
2023-01-09T18:28:11.425Z,5.69
2023-01-09T18:30:40.660Z,5.68
2023-01-09T18:33:08.534Z,5.68
2023-01-09T18:35:37.329Z,5.66
2023-01-09T18:38:05.143Z,5.65
2023-01-09T18:40:34.071Z,5.66
2023-01-09T18:43:04.952Z,5.65
2023-01-09T18:45:33.243Z,5.64
2023-01-09T18:48:02.540Z,5.63
2023-01-09T18:50:30.453Z,5.63
2023-01-09T18:53:00.315Z,5.64
2023-01-09T18:55:28.136Z,5.63
2023-01-09T18:57:56.846Z,5.62
2023-01-09T19:00:24.900Z,5.61
2023-01-09T19:02:52.979Z,5.60
2023-01-09T19:05:22.272Z,5.57
2023-01-09T19:07:50.140Z,5.55
2023-01-09T19:10:18.720Z,5.53
2023-01-09T19:12:46.746Z,5.54
2023-01-09T19:15:14.569Z,5.56
2023-01-09T19:17:42.582Z,5.58
2023-01-09T19:20:11.892Z,5.58
2023-01-09T19:22:41.064Z,5.59
2023-01-09T19:25:12.014Z,5.58
2023-01-09T19:27:40.001Z,5.59
2023-01-09T19:30:09.576Z,5.59
2023-01-09T19:32:38.358Z,5.60
2023-01-09T19:35:06.860Z,5.60
2023-01-09T19:37:37.288Z,5.61
2023-01-09T19:40:07.772Z,5.60
2023-01-09T19:42:35.812Z,5.54
2023-01-09T19:45:04.178Z,5.50
2023-01-09T19:47:36.034Z,5.43
2023-01-09T19:50:05.461Z,5.38
2023-01-09T19:52:33.286Z,5.34
2023-01-09T19:55:01.338Z,5.28
2023-01-09T19:57:30.582Z,5.25
2023-01-09T20:00:23.984Z,5.22
2023-01-09T20:02:51.862Z,5.19
2023-01-09T20:05:19.773Z,5.16
2023-01-09T20:07:47.625Z,5.13
2023-01-09T20:10:15.546Z,5.12
2023-01-09T20:12:51.549Z,5.12
2023-01-09T20:15:19.450Z,5.13
2023-01-09T20:17:47.327Z,5.10
2023-01-09T20:20:16.179Z,5.04
2023-01-09T20:22:43.944Z,5.04
2023-01-09T20:25:11.887Z,5.01
2023-01-09T20:27:39.659Z,4.96
2023-01-09T20:30:10.695Z,4.92
2023-01-09T20:32:38.533Z,4.90
2023-01-09T20:35:07.352Z,4.87
2023-01-09T20:37:35.173Z,4.84
2023-01-09T20:40:02.987Z,4.82
2023-01-09T20:42:32.114Z,4.81
2023-01-09T20:44:59.872Z,4.77
2023-01-09T20:47:29.309Z,4.75
2023-01-09T20:49:57.145Z,4.76
2023-01-09T20:52:25.021Z,4.73
2023-01-09T20:54:52.835Z,4.69
2023-01-09T20:57:20.643Z,4.67
2023-01-09T20:59:48.718Z,4.68
2023-01-09T21:02:16.526Z,4.67
2023-01-09T21:04:45.723Z,4.67
2023-01-09T21:07:13.662Z,4.68
2023-01-09T21:09:41.456Z,4.68
2023-01-09T21:12:23.478Z,4.70
2023-01-09T21:14:51.521Z,4.70
2023-01-09T21:17:19.522Z,4.70
2023-01-09T21:19:49.806Z,4.69
2023-01-09T21:22:17.757Z,4.69
2023-01-09T21:24:45.771Z,4.69
2023-01-09T21:27:13.541Z,4.67
2023-01-09T21:29:41.594Z,4.62
2023-01-09T21:32:09.448Z,4.59
2023-01-09T21:34:37.359Z,4.56
2023-01-09T21:37:06.570Z,4.53
2023-01-09T21:39:34.645Z,4.53
2023-01-09T21:42:19.879Z,4.51
2023-01-09T21:45:05.232Z,4.47
2023-01-09T21:47:33.799Z,4.44
2023-01-09T21:50:01.614Z,4.41
2023-01-09T21:52:30.814Z,4.37
2023-01-09T21:54:58.794Z,4.35
2023-01-09T21:57:26.711Z,4.31
2023-01-09T21:59:54.480Z,4.30
2023-01-09T22:02:22.342Z,4.29
2023-01-09T22:04:50.177Z,4.29
2023-01-09T22:07:18.808Z,4.27
2023-01-09T22:09:48.040Z,4.30
2023-01-09T22:12:15.932Z,4.30
2023-01-09T22:14:43.828Z,4.31
2023-01-09T22:17:11.656Z,4.31
2023-01-09T22:19:39.545Z,4.31
2023-01-09T22:22:13.160Z,4.34
2023-01-09T22:24:41.003Z,4.34
2023-01-09T22:27:10.258Z,4.33
2023-01-09T22:29:38.092Z,4.33
2023-01-09T22:32:07.271Z,4.34
2023-01-09T22:34:35.099Z,4.35
2023-01-09T22:37:03.439Z,4.36
2023-01-09T22:39:31.252Z,4.39
2023-01-09T22:41:59.126Z,4.42
2023-01-09T22:44:28.504Z,4.43
2023-01-09T22:46:57.421Z,4.47
2023-01-09T22:49:53.269Z,4.47
2023-01-09T22:52:21.595Z,4.49
2023-01-09T22:54:49.421Z,4.50
2023-01-09T22:57:17.415Z,4.53
2023-01-09T22:59:46.633Z,4.53
2023-01-09T23:06:35.220Z,4.54
2023-01-09T23:09:03.104Z,4.56
2023-01-09T23:11:49.700Z,4.55
2023-01-09T23:14:18.227Z,4.55
2023-01-09T23:16:46.040Z,4.54
2023-01-09T23:19:15.621Z,4.54
2023-01-09T23:21:46.057Z,4.53
2023-01-09T23:24:15.652Z,4.52
2023-01-09T23:26:43.759Z,4.53
2023-01-09T23:29:12.760Z,4.51
2023-01-09T23:31:40.659Z,4.50
2023-01-09T23:34:09.007Z,4.47
2023-01-09T23:36:36.939Z,4.43
2023-01-09T23:39:08.962Z,4.42
2023-01-09T23:41:55.000Z,4.41
2023-01-09T23:44:22.967Z,4.39
2023-01-09T23:46:50.824Z,4.35
2023-01-09T23:49:18.804Z,4.32
2023-01-09T23:51:46.878Z,4.35
2023-01-09T23:54:17.093Z,4.33
2023-01-09T23:56:45.010Z,4.34
2023-01-09T23:59:14.136Z,4.33
